sensor_id;sensor_type;location;lat;lon;timestamp;pressure;altitude;pressure_sealevel;temperature;humidity
40708;BME280;26392;42.696;23.350;2023-04-01T00:02:05;94421.22;;;10.50;99.46
40708;BME280;26392;42.696;23.350;2023-04-01T00:04:31;94423.91;;;10.56;100.00
40708;BME280;26392;42.696;23.350;2023-04-01T00:06:57;94426.69;;;10.45;100.00
40708;BME280;26392;42.696;23.350;2023-04-01T00:09:22;94429.91;;;10.52;100.00
40708;BME280;26392;42.696;23.350;2023-04-01T00:11:48;94429.91;;;10.52;100.00
40708;BME280;26392;42.696;23.350;2023-04-01T00:14:13;94436.22;;;10.48;100.00
40708;BME280;26392;42.696;23.350;2023-04-01T00:16:39;94443.03;;;10.30;100.00
40708;BME280;26392;42.696;23.350;2023-04-01T00:19:05;94431.63;;;10.28;100.00
40708;BME280;26392;42.696;23.350;2023-04-01T00:21:30;94431.31;;;10.19;100.00
40708;BME280;26392;42.696;23.350;2023-04-01T00:23:56;94437.03;;;10.18;100.00
40708;BME280;26392;42.696;23.350;2023-04-01T00:26:21;94432.69;;;10.17;100.00
40708;BME280;26392;42.696;23.350;2023-04-01T00:28:47;94416.34;;;10.32;100.00
40708;BME280;26392;42.696;23.350;2023-04-01T00:31:13;94424.78;;;10.41;100.00
40708;BME280;26392;42.696;23.350;2023-04-01T00:33:40;94423.13;;;10.50;100.00
40708;BME280;26392;42.696;23.350;2023-04-01T00:36:11;94424.22;;;10.49;100.00
40708;BME280;26392;42.696;23.350;2023-04-01T00:38:37;94419.03;;;10.52;100.00
40708;BME280;26392;42.696;23.350;2023-04-01T00:41:03;94419.31;;;10.56;100.00
40708;BME280;26392;42.696;23.350;2023-04-01T00:43:29;94414.66;;;10.62;100.00
40708;BME280;26392;42.696;23.350;2023-04-01T00:45:55;94407.56;;;10.61;100.00
40708;BME280;26392;42.696;23.350;2023-04-01T00:48:28;94398.00;;;10.73;100.00
40708;BME280;26392;42.696;23.350;2023-04-01T00:51:05;94398.56;;;10.70;100.00
40708;BME280;26392;42.696;23.350;2023-04-01T00:53:32;94396.13;;;10.64;100.00
40708;BME280;26392;42.696;23.350;2023-04-01T00:56:07;94387.38;;;10.67;100.00
40708;BME280;26392;42.696;23.350;2023-04-01T00:58:40;94381.41;;;10.65;100.00
40708;BME280;26392;42.696;23.350;2023-04-01T01:01:08;94357.47;;;10.62;100.00
40708;BME280;26392;42.696;23.350;2023-04-01T01:03:34;94365.56;;;10.77;100.00
40708;BME280;26392;42.696;23.350;2023-04-01T01:12:17;94348.09;;;10.78;100.00
40708;BME280;26392;42.696;23.350;2023-04-01T01:30:59;94335.47;;;10.48;100.00
40708;BME280;26392;42.696;23.350;2023-04-01T01:36:29;94331.59;;;10.59;100.00
40708;BME280;26392;42.696;23.350;2023-04-01T01:38:56;94329.13;;;10.58;100.00
40708;BME280;26392;42.696;23.350;2023-04-01T01:41:25;94327.53;;;10.51;100.00
40708;BME280;26392;42.696;23.350;2023-04-01T01:43:53;94329.19;;;10.47;100.00
40708;BME280;26392;42.696;23.350;2023-04-01T01:46:23;94321.28;;;10.46;100.00
40708;BME280;26392;42.696;23.350;2023-04-01T01:48:50;94324.31;;;10.39;100.00
40708;BME280;26392;42.696;23.350;2023-04-01T01:51:18;94321.88;;;10.38;100.00
40708;BME280;26392;42.696;23.350;2023-04-01T01:53:45;94312.03;;;10.42;100.00
40708;BME280;26392;42.696;23.350;2023-04-01T01:56:11;94315.59;;;10.47;100.00
40708;BME280;26392;42.696;23.350;2023-04-01T01:58:46;94307.66;;;10.56;100.00
40708;BME280;26392;42.696;23.350;2023-04-01T02:01:19;94318.25;;;10.58;100.00
40708;BME280;26392;42.696;23.350;2023-04-01T02:03:47;94309.81;;;10.54;100.00
40708;BME280;26392;42.696;23.350;2023-04-01T02:06:16;94319.06;;;10.58;100.00
40708;BME280;26392;42.696;23.350;2023-04-01T02:08:47;94312.22;;;10.66;100.00
40708;BME280;26392;42.696;23.350;2023-04-01T02:11:20;94300.31;;;10.46;100.00
40708;BME280;26392;42.696;23.350;2023-04-01T02:19:06;94293.28;;;10.40;100.00
40708;BME280;26392;42.696;23.350;2023-04-01T02:21:33;94291.06;;;10.47;100.00
40708;BME280;26392;42.696;23.350;2023-04-01T02:24:02;94287.47;;;10.57;100.00
40708;BME280;26392;42.696;23.350;2023-04-01T02:26:29;94281.22;;;10.57;100.00
40708;BME280;26392;42.696;23.350;2023-04-01T02:28:56;94291.00;;;10.63;100.00
40708;BME280;26392;42.696;23.350;2023-04-01T02:31:24;94275.19;;;10.65;99.69
40708;BME280;26392;42.696;23.350;2023-04-01T02:33:50;94293.38;;;10.74;98.52
40708;BME280;26392;42.696;23.350;2023-04-01T02:36:17;94300.16;;;10.82;97.61
40708;BME280;26392;42.696;23.350;2023-04-01T02:38:44;94295.75;;;10.86;97.22
40708;BME280;26392;42.696;23.350;2023-04-01T02:41:10;94302.84;;;10.87;97.04
40708;BME280;26392;42.696;23.350;2023-04-01T02:43:37;94306.94;;;10.85;98.45
40708;BME280;26392;42.696;23.350;2023-04-01T02:46:02;94309.16;;;10.78;99.53
40708;BME280;26392;42.696;23.350;2023-04-01T02:48:28;94317.75;;;10.50;100.00
40708;BME280;26392;42.696;23.350;2023-04-01T02:50:54;94321.03;;;10.42;100.00
40708;BME280;26392;42.696;23.350;2023-04-01T02:53:19;94320.53;;;10.30;100.00
40708;BME280;26392;42.696;23.350;2023-04-01T02:55:45;94324.09;;;10.05;100.00
40708;BME280;26392;42.696;23.350;2023-04-01T02:58:10;94326.31;;;9.77;100.00
40708;BME280;26392;42.696;23.350;2023-04-01T03:00:36;94321.19;;;9.71;100.00
40708;BME280;26392;42.696;23.350;2023-04-01T03:03:02;94339.41;;;9.70;100.00
40708;BME280;26392;42.696;23.350;2023-04-01T03:05:28;94337.50;;;9.76;100.00
40708;BME280;26392;42.696;23.350;2023-04-01T03:07:53;94337.78;;;9.64;100.00
40708;BME280;26392;42.696;23.350;2023-04-01T03:10:19;94334.78;;;9.66;100.00
40708;BME280;26392;42.696;23.350;2023-04-01T03:12:44;94322.00;;;9.56;100.00
40708;BME280;26392;42.696;23.350;2023-04-01T03:15:11;94332.59;;;9.62;100.00
40708;BME280;26392;42.696;23.350;2023-04-01T03:17:38;94339.13;;;9.72;100.00
40708;BME280;26392;42.696;23.350;2023-04-01T03:20:05;94335.59;;;9.76;100.00
40708;BME280;26392;42.696;23.350;2023-04-01T03:22:31;94336.94;;;9.74;100.00
40708;BME280;26392;42.696;23.350;2023-04-01T03:24:56;94330.44;;;9.70;100.00
40708;BME280;26392;42.696;23.350;2023-04-01T03:27:22;94344.03;;;9.75;100.00
40708;BME280;26392;42.696;23.350;2023-04-01T03:29:48;94333.69;;;9.82;100.00
40708;BME280;26392;42.696;23.350;2023-04-01T03:32:14;94337.19;;;9.82;100.00
40708;BME280;26392;42.696;23.350;2023-04-01T03:34:39;94353.53;;;10.03;100.00
40708;BME280;26392;42.696;23.350;2023-04-01T03:37:04;94348.34;;;10.06;100.00
40708;BME280;26392;42.696;23.350;2023-04-01T03:39:31;94345.59;;;10.12;100.00
40708;BME280;26392;42.696;23.350;2023-04-01T03:41:56;94337.44;;;10.17;100.00
40708;BME280;26392;42.696;23.350;2023-04-01T03:44:22;94323.78;;;10.22;100.00
40708;BME280;26392;42.696;23.350;2023-04-01T03:46:47;94319.44;;;10.31;100.00
40708;BME280;26392;42.696;23.350;2023-04-01T03:49:13;94306.31;;;10.43;100.00
40708;BME280;26392;42.696;23.350;2023-04-01T03:51:42;94286.72;;;10.46;100.00
40708;BME280;26392;42.696;23.350;2023-04-01T03:54:09;94270.38;;;10.46;100.00
40708;BME280;26392;42.696;23.350;2023-04-01T03:56:35;94265.72;;;10.47;100.00
40708;BME280;26392;42.696;23.350;2023-04-01T03:59:05;94260.59;;;10.45;100.00
40708;BME280;26392;42.696;23.350;2023-04-01T04:01:31;94252.69;;;10.39;100.00
40708;BME280;26392;42.696;23.350;2023-04-01T04:03:56;94239.38;;;10.37;100.00
40708;BME280;26392;42.696;23.350;2023-04-01T04:06:23;94236.44;;;10.28;100.00
40708;BME280;26392;42.696;23.350;2023-04-01T04:08:49;94229.06;;;10.24;100.00
40708;BME280;26392;42.696;23.350;2023-04-01T04:11:15;94226.91;;;10.16;100.00
40708;BME280;26392;42.696;23.350;2023-04-01T04:13:40;94202.50;;;10.00;100.00
40708;BME280;26392;42.696;23.350;2023-04-01T04:16:06;94224.50;;;10.14;100.00
40708;BME280;26392;42.696;23.350;2023-04-01T04:18:32;94216.34;;;10.04;100.00
40708;BME280;26392;42.696;23.350;2023-04-01T04:20:58;94210.59;;;10.11;100.00
40708;BME280;26392;42.696;23.350;2023-04-01T04:23:23;94210.09;;;10.08;100.00
40708;BME280;26392;42.696;23.350;2023-04-01T04:26:00;94208.19;;;10.04;100.00
40708;BME280;26392;42.696;23.350;2023-04-01T04:28:27;94201.69;;;10.00;100.00
40708;BME280;26392;42.696;23.350;2023-04-01T04:30:53;94187.25;;;9.99;100.00
40708;BME280;26392;42.696;23.350;2023-04-01T04:33:18;94190.59;;;9.86;100.00
40708;BME280;26392;42.696;23.350;2023-04-01T04:35:44;94192.78;;;9.74;100.00
40708;BME280;26392;42.696;23.350;2023-04-01T04:38:10;94186.25;;;9.80;100.00
40708;BME280;26392;42.696;23.350;2023-04-01T04:40:39;94178.94;;;9.75;100.00
40708;BME280;26392;42.696;23.350;2023-04-01T04:43:05;94188.44;;;9.78;100.00
40708;BME280;26392;42.696;23.350;2023-04-01T04:45:30;94176.72;;;9.82;100.00
40708;BME280;26392;42.696;23.350;2023-04-01T04:50:48;94177.78;;;9.92;100.00
40708;BME280;26392;42.696;23.350;2023-04-01T04:53:16;94170.34;;;10.07;100.00
40708;BME280;26392;42.696;23.350;2023-04-01T04:55:45;94161.56;;;10.21;100.00
40708;BME280;26392;42.696;23.350;2023-04-01T04:58:11;94142.28;;;10.17;100.00
40708;BME280;26392;42.696;23.350;2023-04-01T05:00:36;94158.84;;;10.31;100.00
40708;BME280;26392;42.696;23.350;2023-04-01T05:03:02;94156.59;;;10.38;100.00
40708;BME280;26392;42.696;23.350;2023-04-01T05:05:27;94141.56;;;10.46;100.00
40708;BME280;26392;42.696;23.350;2023-04-01T05:07:53;94154.06;;;10.52;100.00
40708;BME280;26392;42.696;23.350;2023-04-01T05:10:18;94148.31;;;10.59;100.00
40708;BME280;26392;42.696;23.350;2023-04-01T05:12:45;94135.78;;;10.58;100.00
40708;BME280;26392;42.696;23.350;2023-04-01T05:15:11;94113.50;;;10.50;100.00
40708;BME280;26392;42.696;23.350;2023-04-01T05:17:36;94128.72;;;10.57;100.00
40708;BME280;26392;42.696;23.350;2023-04-01T05:20:02;94117.00;;;10.56;100.00
40708;BME280;26392;42.696;23.350;2023-04-01T05:22:27;94126.00;;;10.57;100.00
40708;BME280;26392;42.696;23.350;2023-04-01T05:24:53;94131.91;;;10.64;100.00
40708;BME280;26392;42.696;23.350;2023-04-01T05:27:21;94113.56;;;10.74;100.00
40708;BME280;26392;42.696;23.350;2023-04-01T05:29:46;94110.53;;;10.81;99.76
40708;BME280;26392;42.696;23.350;2023-04-01T05:32:12;94110.25;;;10.83;100.00
40708;BME280;26392;42.696;23.350;2023-04-01T05:34:38;94115.34;;;10.89;99.42
40708;BME280;26392;42.696;23.350;2023-04-01T05:37:03;94111.66;;;11.09;98.15
40708;BME280;26392;42.696;23.350;2023-04-01T05:39:28;94118.91;;;11.19;95.84
40708;BME280;26392;42.696;23.350;2023-04-01T05:41:54;94121.75;;;11.33;94.22
40708;BME280;26392;42.696;23.350;2023-04-01T05:44:20;94111.25;;;11.45;92.39
40708;BME280;26392;42.696;23.350;2023-04-01T05:46:45;94127.16;;;11.62;89.28
40708;BME280;26392;42.696;23.350;2023-04-01T05:49:10;94116.03;;;11.82;84.89
40708;BME280;26392;42.696;23.350;2023-04-01T05:51:36;94119.25;;;11.84;83.54
40708;BME280;26392;42.696;23.350;2023-04-01T05:54:01;94102.78;;;11.95;83.97
40708;BME280;26392;42.696;23.350;2023-04-01T05:56:28;94108.28;;;12.14;81.07
40708;BME280;26392;42.696;23.350;2023-04-01T05:58:54;94092.50;;;12.29;76.66
40708;BME280;26392;42.696;23.350;2023-04-01T06:01:20;94091.72;;;12.43;75.45
40708;BME280;26392;42.696;23.350;2023-04-01T06:03:45;94097.38;;;12.65;72.93
40708;BME280;26392;42.696;23.350;2023-04-01T06:06:31;94102.09;;;12.79;71.53
40708;BME280;26392;42.696;23.350;2023-04-01T06:09:01;94091.63;;;12.86;70.19
40708;BME280;26392;42.696;23.350;2023-04-01T06:28:22;94098.34;;;13.95;64.23
40708;BME280;26392;42.696;23.350;2023-04-01T06:45:07;94050.06;;;14.36;61.48
40708;BME280;26392;42.696;23.350;2023-04-01T06:50:40;94081.50;;;13.88;66.04
40708;BME280;26392;42.696;23.350;2023-04-01T06:56:05;94062.50;;;14.19;65.23
40708;BME280;26392;42.696;23.350;2023-04-01T06:58:38;94042.34;;;14.01;66.21
40708;BME280;26392;42.696;23.350;2023-04-01T07:01:08;94037.25;;;13.58;69.35
40708;BME280;26392;42.696;23.350;2023-04-01T07:03:44;94044.63;;;13.72;70.92
40708;BME280;26392;42.696;23.350;2023-04-01T07:06:19;94058.09;;;13.82;70.62
40708;BME280;26392;42.696;23.350;2023-04-01T07:08:50;94064.28;;;13.87;70.91
40708;BME280;26392;42.696;23.350;2023-04-01T07:11:37;94064.63;;;13.58;73.89
40708;BME280;26392;42.696;23.350;2023-04-01T07:24:52;94038.13;;;13.95;76.38
40708;BME280;26392;42.696;23.350;2023-04-01T07:27:18;94024.63;;;13.99;76.00
40708;BME280;26392;42.696;23.350;2023-04-01T07:29:44;94038.00;;;14.00;76.38
40708;BME280;26392;42.696;23.350;2023-04-01T07:37:56;94043.56;;;14.45;71.80
40708;BME280;26392;42.696;23.350;2023-04-01T07:46:30;94032.66;;;14.99;68.60
40708;BME280;26392;42.696;23.350;2023-04-01T07:52:06;94027.31;;;15.25;67.67
40708;BME280;26392;42.696;23.350;2023-04-01T07:57:23;94021.81;;;15.65;63.57
40708;BME280;26392;42.696;23.350;2023-04-01T08:00:19;94023.34;;;15.80;62.36
40708;BME280;26392;42.696;23.350;2023-04-01T08:05:53;94012.25;;;15.54;61.14
40708;BME280;26392;42.696;23.350;2023-04-01T08:11:08;93999.16;;;15.51;61.08
40708;BME280;26392;42.696;23.350;2023-04-01T08:21:44;93979.59;;;16.01;61.70
40708;BME280;26392;42.696;23.350;2023-04-01T08:24:43;93975.09;;;16.31;59.50
40708;BME280;26392;42.696;23.350;2023-04-01T08:27:18;93988.78;;;16.66;57.61
40708;BME280;26392;42.696;23.350;2023-04-01T08:32:26;93979.69;;;17.09;57.08
40708;BME280;26392;42.696;23.350;2023-04-01T08:35:08;93964.69;;;17.36;55.92
40708;BME280;26392;42.696;23.350;2023-04-01T08:37:38;93954.34;;;17.33;54.44
40708;BME280;26392;42.696;23.350;2023-04-01T08:40:35;93946.22;;;17.36;54.35
40708;BME280;26392;42.696;23.350;2023-04-01T08:51:19;93912.34;;;16.50;53.18
40708;BME280;26392;42.696;23.350;2023-04-01T08:56:42;93901.34;;;16.50;54.63
40708;BME280;26392;42.696;23.350;2023-04-01T09:08:00;93932.19;;;17.88;49.85
40708;BME280;26392;42.696;23.350;2023-04-01T09:13:37;93915.66;;;18.30;47.55
40708;BME280;26392;42.696;23.350;2023-04-01T09:24:40;93902.56;;;18.94;43.99
40708;BME280;26392;42.696;23.350;2023-04-01T09:27:10;93896.63;;;18.71;42.81
40708;BME280;26392;42.696;23.350;2023-04-01T09:40:28;93874.94;;;18.15;43.14
40708;BME280;26392;42.696;23.350;2023-04-01T09:43:13;93867.41;;;18.37;42.97
40708;BME280;26392;42.696;23.350;2023-04-01T09:51:20;93844.56;;;17.82;44.60
40708;BME280;26392;42.696;23.350;2023-04-01T09:54:03;93837.00;;;17.79;45.95
40708;BME280;26392;42.696;23.350;2023-04-01T10:11:41;93811.03;;;17.59;46.30
40708;BME280;26392;42.696;23.350;2023-04-01T10:17:20;93807.97;;;18.15;46.72
40708;BME280;26392;42.696;23.350;2023-04-01T10:25:42;93805.97;;;18.36;46.27
40708;BME280;26392;42.696;23.350;2023-04-01T10:28:41;93807.81;;;18.32;46.13
40708;BME280;26392;42.696;23.350;2023-04-01T10:37:32;93777.44;;;17.65;47.74
40708;BME280;26392;42.696;23.350;2023-04-01T10:51:04;93774.22;;;17.42;49.53
40708;BME280;26392;42.696;23.350;2023-04-01T10:56:39;93759.78;;;17.04;49.60
40708;BME280;26392;42.696;23.350;2023-04-01T10:59:25;93758.13;;;17.03;50.07
40708;BME280;26392;42.696;23.350;2023-04-01T11:13:47;93744.63;;;17.39;48.88
40708;BME280;26392;42.696;23.350;2023-04-01T11:24:59;93747.44;;;17.52;48.41
40708;BME280;26392;42.696;23.350;2023-04-01T11:28:05;93755.69;;;17.52;48.47
40708;BME280;26392;42.696;23.350;2023-04-01T11:33:25;93806.84;;;17.53;48.36
40708;BME280;26392;42.696;23.350;2023-04-01T11:44:17;93872.84;;;16.64;54.84
40708;BME280;26392;42.696;23.350;2023-04-01T11:55:01;93985.50;;;14.43;100.00
40708;BME280;26392;42.696;23.350;2023-04-01T11:57:46;94015.44;;;13.81;100.00
40708;BME280;26392;42.696;23.350;2023-04-01T12:20:26;93990.03;;;12.65;100.00
40708;BME280;26392;42.696;23.350;2023-04-01T12:23:07;94002.59;;;12.80;100.00
40708;BME280;26392;42.696;23.350;2023-04-01T12:33:57;94023.50;;;13.86;100.00
40708;BME280;26392;42.696;23.350;2023-04-01T12:36:40;94029.03;;;13.58;100.00
40708;BME280;26392;42.696;23.350;2023-04-01T12:39:33;94027.06;;;13.17;100.00
40708;BME280;26392;42.696;23.350;2023-04-01T12:45:27;94037.13;;;12.75;100.00
40708;BME280;26392;42.696;23.350;2023-04-01T13:08:41;93965.81;;;12.44;100.00
40708;BME280;26392;42.696;23.350;2023-04-01T13:24:39;93944.50;;;12.88;100.00
40708;BME280;26392;42.696;23.350;2023-04-01T13:27:27;93937.66;;;13.32;100.00
40708;BME280;26392;42.696;23.350;2023-04-01T13:30:59;93920.88;;;13.61;100.00
40708;BME280;26392;42.696;23.350;2023-04-01T13:33:06;93912.78;;;13.92;100.00
40708;BME280;26392;42.696;23.350;2023-04-01T13:36:08;93888.69;;;14.03;100.00
40708;BME280;26392;42.696;23.350;2023-04-01T13:44:28;93881.09;;;13.41;100.00
40708;BME280;26392;42.696;23.350;2023-04-01T13:55:55;93878.47;;;12.25;100.00
40708;BME280;26392;42.696;23.350;2023-04-01T13:58:34;93881.75;;;12.41;100.00
40708;BME280;26392;42.696;23.350;2023-04-01T14:06:27;93866.56;;;12.76;100.00
40708;BME280;26392;42.696;23.350;2023-04-01T14:09:45;93855.44;;;12.73;100.00
40708;BME280;26392;42.696;23.350;2023-04-01T14:20:31;93847.16;;;12.64;100.00
40708;BME280;26392;42.696;23.350;2023-04-01T14:31:30;93796.16;;;13.10;100.00
40708;BME280;26392;42.696;23.350;2023-04-01T14:34:09;93796.06;;;13.29;100.00
40708;BME280;26392;42.696;23.350;2023-04-01T14:37:03;93791.09;;;13.53;100.00
40708;BME280;26392;42.696;23.350;2023-04-01T14:51:15;93804.72;;;14.21;100.00
40708;BME280;26392;42.696;23.350;2023-04-01T14:53:58;93807.69;;;14.33;100.00
40708;BME280;26392;42.696;23.350;2023-04-01T14:56:44;93804.81;;;14.38;100.00
40708;BME280;26392;42.696;23.350;2023-04-01T14:59:30;93808.38;;;14.47;100.00
40708;BME280;26392;42.696;23.350;2023-04-01T15:07:45;93826.78;;;14.95;100.00
40708;BME280;26392;42.696;23.350;2023-04-01T15:32:19;93833.13;;;14.02;100.00
40708;BME280;26392;42.696;23.350;2023-04-01T15:34:59;93813.78;;;13.99;100.00
40708;BME280;26392;42.696;23.350;2023-04-01T15:40:02;93826.28;;;13.91;100.00
40708;BME280;26392;42.696;23.350;2023-04-01T15:48:00;93828.41;;;13.94;100.00
40708;BME280;26392;42.696;23.350;2023-04-01T15:53:54;94035.00;;;13.47;100.00
40708;BME280;26392;42.696;23.350;2023-04-01T15:56:41;94058.78;;;11.34;100.00
40708;BME280;26392;42.696;23.350;2023-04-01T16:04:30;94068.38;;;9.40;100.00
40708;BME280;26392;42.696;23.350;2023-04-01T16:07:07;94064.38;;;9.17;100.00
40708;BME280;26392;42.696;23.350;2023-04-01T16:21:06;94104.66;;;8.48;100.00
40708;BME280;26392;42.696;23.350;2023-04-01T16:23:59;94103.59;;;8.44;100.00
40708;BME280;26392;42.696;23.350;2023-04-01T16:26:39;94107.13;;;8.45;100.00
40708;BME280;26392;42.696;23.350;2023-04-01T16:29:45;94105.50;;;8.44;100.00
40708;BME280;26392;42.696;23.350;2023-04-01T16:32:37;94113.66;;;8.49;100.00
40708;BME280;26392;42.696;23.350;2023-04-01T16:40:47;94125.84;;;8.57;100.00
40708;BME280;26392;42.696;23.350;2023-04-01T16:43:25;94131.28;;;8.67;100.00
40708;BME280;26392;42.696;23.350;2023-04-01T16:48:52;94142.16;;;8.77;100.00
40708;BME280;26392;42.696;23.350;2023-04-01T16:51:23;94144.59;;;8.79;100.00
40708;BME280;26392;42.696;23.350;2023-04-01T16:54:14;94145.69;;;8.83;100.00
40708;BME280;26392;42.696;23.350;2023-04-01T16:56:47;94139.69;;;8.81;100.00
40708;BME280;26392;42.696;23.350;2023-04-01T17:04:40;94144.31;;;8.70;100.00
40708;BME280;26392;42.696;23.350;2023-04-01T17:21:26;94185.03;;;8.49;100.00
40708;BME280;26392;42.696;23.350;2023-04-01T17:26:40;94177.69;;;8.50;100.00
40708;BME280;26392;42.696;23.350;2023-04-01T17:35:02;94189.66;;;8.44;100.00
40708;BME280;26392;42.696;23.350;2023-04-01T17:45:55;94195.06;;;8.44;100.00
40708;BME280;26392;42.696;23.350;2023-04-01T17:53:47;94218.38;;;8.35;100.00
40708;BME280;26392;42.696;23.350;2023-04-01T17:59:39;94238.19;;;8.35;100.00
40708;BME280;26392;42.696;23.350;2023-04-01T18:21:33;94264.63;;;7.97;100.00
40708;BME280;26392;42.696;23.350;2023-04-01T18:27:06;94260.31;;;8.01;100.00
40708;BME280;26392;42.696;23.350;2023-04-01T18:29:53;94261.34;;;7.95;100.00
40708;BME280;26392;42.696;23.350;2023-04-01T18:32:35;94262.72;;;7.98;100.00
40708;BME280;26392;42.696;23.350;2023-04-01T18:35:27;94273.03;;;8.01;100.00
40708;BME280;26392;42.696;23.350;2023-04-01T18:46:36;94272.00;;;8.12;100.00
40708;BME280;26392;42.696;23.350;2023-04-01T18:49:30;94271.50;;;8.20;100.00
40708;BME280;26392;42.696;23.350;2023-04-01T18:52:08;94282.84;;;8.12;100.00
40708;BME280;26392;42.696;23.350;2023-04-01T18:55:14;94285.34;;;8.19;100.00
40708;BME280;26392;42.696;23.350;2023-04-01T19:00:27;94289.16;;;8.28;100.00
40708;BME280;26392;42.696;23.350;2023-04-01T19:05:40;94294.63;;;8.33;100.00
40708;BME280;26392;42.696;23.350;2023-04-01T19:08:33;94295.50;;;8.44;100.00
40708;BME280;26392;42.696;23.350;2023-04-01T19:24:41;94303.66;;;8.49;100.00
40708;BME280;26392;42.696;23.350;2023-04-01T19:27:35;94308.53;;;8.47;100.00
40708;BME280;26392;42.696;23.350;2023-04-01T19:33:12;94320.75;;;8.49;100.00
40708;BME280;26392;42.696;23.350;2023-04-01T19:39:04;94328.91;;;8.60;100.00
40708;BME280;26392;42.696;23.350;2023-04-01T19:41:49;94331.63;;;8.60;100.00
40708;BME280;26392;42.696;23.350;2023-04-01T19:52:37;94318.84;;;8.50;100.00
40708;BME280;26392;42.696;23.350;2023-04-01T19:55:32;94344.38;;;8.54;100.00
40708;BME280;26392;42.696;23.350;2023-04-01T19:58:09;94346.84;;;8.56;100.00
40708;BME280;26392;42.696;23.350;2023-04-01T20:00:42;94333.53;;;8.49;100.00
40708;BME280;26392;42.696;23.350;2023-04-01T20:19:40;94343.88;;;8.57;100.00
40708;BME280;26392;42.696;23.350;2023-04-01T20:22:24;94348.78;;;8.60;100.00
40708;BME280;26392;42.696;23.350;2023-04-01T20:24:58;94347.41;;;8.63;100.00
40708;BME280;26392;42.696;23.350;2023-04-01T20:27:33;94347.66;;;8.61;100.00
40708;BME280;26392;42.696;23.350;2023-04-01T20:35:42;94354.22;;;8.70;100.00
40708;BME280;26392;42.696;23.350;2023-04-01T20:49:34;94371.56;;;8.64;100.00
40708;BME280;26392;42.696;23.350;2023-04-01T20:55:19;94370.22;;;8.62;100.00
40708;BME280;26392;42.696;23.350;2023-04-01T21:08:45;94376.44;;;8.62;100.00
40708;BME280;26392;42.696;23.350;2023-04-01T21:11:35;94384.56;;;8.52;100.00
40708;BME280;26392;42.696;23.350;2023-04-01T21:14:11;94385.94;;;8.60;100.00
40708;BME280;26392;42.696;23.350;2023-04-01T21:16:49;94379.13;;;8.52;100.00
40708;BME280;26392;42.696;23.350;2023-04-01T21:21:54;94404.78;;;8.77;100.00
40708;BME280;26392;42.696;23.350;2023-04-01T21:32:50;94397.75;;;8.96;100.00
40708;BME280;26392;42.696;23.350;2023-04-01T21:38:35;94396.97;;;9.01;100.00
40708;BME280;26392;42.696;23.350;2023-04-01T22:05:12;94384.97;;;8.86;100.00
40708;BME280;26392;42.696;23.350;2023-04-01T22:10:42;94389.50;;;8.70;100.00
40708;BME280;26392;42.696;23.350;2023-04-01T22:13:20;94387.91;;;8.69;100.00
40708;BME280;26392;42.696;23.350;2023-04-01T22:18:39;94388.34;;;8.46;100.00
40708;BME280;26392;42.696;23.350;2023-04-01T22:21:24;94385.31;;;8.42;100.00
40708;BME280;26392;42.696;23.350;2023-04-01T22:26:40;94388.19;;;8.25;100.00
40708;BME280;26392;42.696;23.350;2023-04-01T22:32:05;94378.88;;;8.11;100.00
40708;BME280;26392;42.696;23.350;2023-04-01T22:37:26;94377.78;;;8.07;100.00
40708;BME280;26392;42.696;23.350;2023-04-01T22:40:00;94378.53;;;7.97;100.00
40708;BME280;26392;42.696;23.350;2023-04-01T22:42:40;94379.59;;;7.91;100.00
40708;BME280;26392;42.696;23.350;2023-04-01T22:50:19;94383.53;;;7.78;100.00
40708;BME280;26392;42.696;23.350;2023-04-01T22:52:50;94395.44;;;7.72;100.00
40708;BME280;26392;42.696;23.350;2023-04-01T22:55:24;94404.13;;;7.74;100.00
40708;BME280;26392;42.696;23.350;2023-04-01T22:57:55;94402.31;;;7.85;100.00
40708;BME280;26392;42.696;23.350;2023-04-01T23:00:30;94407.75;;;7.85;100.00
40708;BME280;26392;42.696;23.350;2023-04-01T23:03:15;94408.06;;;7.94;100.00
40708;BME280;26392;42.696;23.350;2023-04-01T23:05:53;94409.78;;;8.05;100.00
40708;BME280;26392;42.696;23.350;2023-04-01T23:11:46;94410.63;;;8.11;100.00
40708;BME280;26392;42.696;23.350;2023-04-01T23:14:28;94409.00;;;8.10;100.00
40708;BME280;26392;42.696;23.350;2023-04-01T23:19:40;94410.91;;;8.14;100.00
40708;BME280;26392;42.696;23.350;2023-04-01T23:22:24;94420.44;;;8.17;100.00
40708;BME280;26392;42.696;23.350;2023-04-01T23:25:20;94408.00;;;8.21;100.00
40708;BME280;26392;42.696;23.350;2023-04-01T23:27:55;94419.41;;;8.28;100.00
40708;BME280;26392;42.696;23.350;2023-04-01T23:30:47;94425.41;;;8.30;100.00
40708;BME280;26392;42.696;23.350;2023-04-01T23:36:02;94431.91;;;8.29;100.00
40708;BME280;26392;42.696;23.350;2023-04-01T23:38:38;94425.13;;;8.32;100.00
40708;BME280;26392;42.696;23.350;2023-04-01T23:41:05;94418.56;;;8.22;100.00
40708;BME280;26392;42.696;23.350;2023-04-01T23:43:34;94419.94;;;8.25;100.00
40708;BME280;26392;42.696;23.350;2023-04-01T23:46:03;94420.75;;;8.25;100.00
40708;BME280;26392;42.696;23.350;2023-04-01T23:48:37;94419.16;;;8.29;100.00
40708;BME280;26392;42.696;23.350;2023-04-01T23:51:14;94416.97;;;8.32;100.00
40708;BME280;26392;42.696;23.350;2023-04-01T23:53:47;94420.00;;;8.35;100.00
40708;BME280;26392;42.696;23.350;2023-04-01T23:56:16;94421.63;;;8.36;100.00
40708;BME280;26392;42.696;23.350;2023-04-01T23:58:47;94415.97;;;8.38;100.00
